createdAt,value
2022-11-09T00:00:10.207Z,98005.16
2022-11-09T00:02:41.561Z,98014.53
2022-11-09T00:05:10.540Z,98016.28
2022-11-09T00:07:37.187Z,98014.34
2022-11-09T00:10:04.289Z,98022.91
2022-11-09T00:12:30.967Z,98023.56
2022-11-09T00:14:57.762Z,98027.91
2022-11-09T00:17:24.386Z,98043.13
2022-11-09T00:19:51.124Z,98031.25
2022-11-09T00:22:17.923Z,98026.16
2022-11-09T00:24:44.586Z,98037.78
2022-11-09T00:27:16.560Z,98048.78
2022-11-09T00:29:44.235Z,98018.53
2022-11-09T00:32:10.894Z,98018.50
2022-11-09T00:34:37.578Z,98039.31
2022-11-09T00:37:04.310Z,98011.06
2022-11-09T00:39:30.947Z,98033.63
2022-11-09T00:41:57.644Z,98041.91
2022-11-09T00:44:24.391Z,98047.75
2022-11-09T00:46:51.132Z,98027.91
2022-11-09T00:49:17.803Z,98034.25
2022-11-09T00:51:44.555Z,98064.06
2022-11-09T00:54:11.260Z,98063.94
2022-11-09T00:56:37.937Z,98064.88
2022-11-09T00:59:04.570Z,98061.81
2022-11-09T01:01:31.568Z,98055.50
2022-11-09T01:03:58.292Z,98070.72
2022-11-09T01:06:26.278Z,98075.16
2022-11-09T01:08:53.785Z,98080.09
2022-11-09T01:11:22.584Z,98079.28
2022-11-09T01:13:49.287Z,98028.31
2022-11-09T01:16:19.953Z,98074.91
2022-11-09T01:18:46.746Z,98093.63
2022-11-09T01:21:15.676Z,98091.28
2022-11-09T01:23:45.705Z,98096.31
2022-11-09T01:26:14.146Z,98107.47
2022-11-09T01:28:41.384Z,98117.31
2022-11-09T01:31:17.800Z,98095.84
2022-11-09T01:33:45.219Z,98105.53
2022-11-09T01:36:21.094Z,98114.13
2022-11-09T01:38:48.709Z,98113.03
2022-11-09T01:41:18.946Z,98111.41
2022-11-09T01:43:47.007Z,98108.06
2022-11-09T01:46:30.332Z,98110.69
2022-11-09T01:49:01.163Z,98090.47
2022-11-09T01:51:45.585Z,98117.59
2022-11-09T01:54:20.253Z,98112.78
2022-11-09T01:56:49.695Z,98100.09
2022-11-09T01:59:20.813Z,98117.31
2022-11-09T02:01:48.923Z,98117.78
2022-11-09T02:04:48.828Z,98111.13
2022-11-09T02:07:15.626Z,98101.88
2022-11-09T02:10:06.680Z,98110.78
2022-11-09T02:12:35.840Z,98088.78
2022-11-09T02:15:05.977Z,98096.28
2022-11-09T02:17:32.979Z,98102.22
2022-11-09T02:20:00.136Z,98125.50
2022-11-09T02:22:27.057Z,98116.38
2022-11-09T02:24:56.343Z,98121.81
2022-11-09T02:27:24.242Z,98132.38
2022-11-09T02:29:51.978Z,98137.63
2022-11-09T02:32:24.812Z,98139.66
2022-11-09T02:34:51.548Z,98136.56
2022-11-09T02:37:40.982Z,98137.97
2022-11-09T02:40:45.794Z,98135.84
2022-11-09T02:43:15.071Z,98132.59
2022-11-09T02:45:41.748Z,98141.97
2022-11-09T02:48:08.557Z,98143.81
2022-11-09T02:50:37.129Z,98154.97
2022-11-09T02:53:04.328Z,98121.19
2022-11-09T02:55:31.074Z,98151.88
2022-11-09T02:57:57.683Z,98149.63
2022-11-09T03:00:27.941Z,98147.13
2022-11-09T03:02:55.046Z,98145.25
2022-11-09T03:05:21.797Z,98157.97
2022-11-09T03:07:48.473Z,98152.13
2022-11-09T03:10:15.222Z,98146.31
2022-11-09T03:12:42.032Z,98149.50
2022-11-09T03:15:09.722Z,98149.13
2022-11-09T03:17:36.615Z,98147.47
2022-11-09T03:20:03.591Z,98156.13
2022-11-09T03:22:30.264Z,98152.22
2022-11-09T03:24:57.049Z,98142.47
2022-11-09T03:27:23.827Z,98144.38
2022-11-09T03:29:50.582Z,98156.72
2022-11-09T03:32:17.256Z,98137.22
2022-11-09T03:34:43.959Z,98144.47
2022-11-09T03:37:11.002Z,98137.13
2022-11-09T03:39:38.072Z,98170.06
2022-11-09T03:42:05.006Z,98152.91
2022-11-09T03:44:32.011Z,98159.94
2022-11-09T03:46:58.752Z,98154.97
2022-11-09T03:49:25.446Z,98159.97
2022-11-09T03:51:52.130Z,98162.94
2022-11-09T03:54:18.851Z,98168.53
2022-11-09T03:56:45.805Z,98181.22
2022-11-09T03:59:12.486Z,98182.81
2022-11-09T04:01:39.220Z,98197.75
2022-11-09T04:04:05.984Z,98192.06
2022-11-09T04:06:32.977Z,98196.09
2022-11-09T04:08:59.717Z,98197.34
2022-11-09T04:11:26.357Z,98199.38
2022-11-09T04:13:54.346Z,98196.78
2022-11-09T04:16:21.016Z,98135.81
2022-11-09T04:18:48.068Z,98168.88
2022-11-09T04:21:14.909Z,98184.94
2022-11-09T04:23:41.578Z,98188.38
2022-11-09T04:26:08.281Z,98199.16
2022-11-09T04:28:34.969Z,98168.75
2022-11-09T04:31:02.383Z,98185.69
2022-11-09T04:33:29.398Z,98199.72
2022-11-09T04:36:01.150Z,98235.69
2022-11-09T04:38:27.764Z,98223.09
2022-11-09T04:40:54.405Z,98226.44
2022-11-09T04:43:21.252Z,98233.34
2022-11-09T04:45:48.110Z,98238.63
2022-11-09T04:48:14.772Z,98237.91
2022-11-09T04:50:41.543Z,98250.78
2022-11-09T04:53:13.359Z,98258.00
2022-11-09T04:55:41.188Z,98262.97
2022-11-09T04:58:08.868Z,98269.78
2022-11-09T05:00:36.394Z,98271.28
2022-11-09T05:03:04.767Z,98281.06
2022-11-09T05:05:34.225Z,98267.38
2022-11-09T05:08:00.988Z,98259.53
2022-11-09T05:10:27.839Z,98276.91
2022-11-09T05:13:01.960Z,98247.16
2022-11-09T05:15:29.019Z,98276.53
2022-11-09T05:17:56.103Z,98284.31
2022-11-09T05:20:23.271Z,98291.28
2022-11-09T05:23:08.532Z,98290.81
2022-11-09T05:25:35.216Z,98310.44
2022-11-09T05:28:02.406Z,98308.53
2022-11-09T05:30:29.409Z,98282.13
2022-11-09T05:32:56.091Z,98299.47
2022-11-09T05:35:22.912Z,98303.69
2022-11-09T05:37:50.321Z,98309.13
2022-11-09T05:40:18.655Z,98280.13
2022-11-09T05:42:46.075Z,98269.78
2022-11-09T05:48:05.017Z,98326.63
2022-11-09T05:50:31.792Z,98331.22
2022-11-09T05:53:02.287Z,98344.22
2022-11-09T05:55:29.098Z,98333.94
2022-11-09T05:57:56.517Z,98352.16
2022-11-09T06:00:23.558Z,98358.00
2022-11-09T06:02:50.611Z,98356.81
2022-11-09T06:05:17.825Z,98359.16
2022-11-09T06:07:44.532Z,98366.16
2022-11-09T06:10:11.735Z,98349.66
2022-11-09T06:12:38.422Z,98372.88
2022-11-09T06:15:06.072Z,98366.34
2022-11-09T06:17:32.726Z,98379.41
2022-11-09T06:19:59.426Z,98390.81
2022-11-09T06:22:26.115Z,98353.84
2022-11-09T06:24:52.775Z,98363.38
2022-11-09T06:27:19.479Z,98400.69
2022-11-09T06:29:46.266Z,98396.97
2022-11-09T06:32:13.026Z,98363.50
2022-11-09T06:34:39.750Z,98379.91
2022-11-09T06:37:06.499Z,98372.16
2022-11-09T06:39:33.408Z,98378.69
2022-11-09T06:42:00.777Z,98404.97
2022-11-09T06:44:27.463Z,98384.97
2022-11-09T06:46:54.185Z,98383.75
2022-11-09T06:49:20.928Z,98402.22
2022-11-09T06:51:47.573Z,98414.16
2022-11-09T06:54:14.495Z,98428.38
2022-11-09T06:56:41.172Z,98409.31
2022-11-09T06:59:08.932Z,98420.06
2022-11-09T07:01:37.656Z,98410.75
2022-11-09T07:04:04.684Z,98429.81
2022-11-09T07:06:31.452Z,98410.75
2022-11-09T07:08:58.220Z,98427.44
2022-11-09T07:11:24.889Z,98428.00
2022-11-09T07:13:57.087Z,98417.34
2022-11-09T07:16:24.422Z,98433.84
2022-11-09T07:18:51.129Z,98438.44
2022-11-09T07:21:18.370Z,98442.47
2022-11-09T07:23:47.820Z,98441.63
2022-11-09T07:26:15.664Z,98456.31
2022-11-09T07:28:42.919Z,98458.50
2022-11-09T07:31:10.532Z,98438.97
2022-11-09T07:33:37.575Z,98449.69
2022-11-09T07:36:05.648Z,98450.78
2022-11-09T07:38:32.538Z,98484.97
2022-11-09T07:41:03.295Z,98453.63
2022-11-09T07:43:30.168Z,98451.84
2022-11-09T07:45:57.431Z,98480.94
2022-11-09T07:48:24.834Z,98488.41
2022-11-09T07:50:52.434Z,98459.06
2022-11-09T07:53:19.641Z,98500.56
2022-11-09T07:55:46.925Z,98499.88
2022-11-09T07:58:16.673Z,98515.00
2022-11-09T08:00:44.246Z,98506.69
2022-11-09T08:03:11.643Z,98475.69
2022-11-09T08:05:40.517Z,98518.97
2022-11-09T08:08:10.745Z,98490.22
2022-11-09T08:10:38.672Z,98523.47
2022-11-09T08:13:09.225Z,98459.03
2022-11-09T08:15:36.660Z,98508.84
2022-11-09T08:18:06.878Z,98448.09
2022-11-09T08:20:33.827Z,98547.06
2022-11-09T08:23:04.041Z,98551.22
2022-11-09T08:25:35.697Z,98565.34
2022-11-09T08:28:03.727Z,98443.00
2022-11-09T08:30:31.227Z,98480.41
2022-11-09T08:32:59.922Z,98541.84
2022-11-09T08:35:27.351Z,98515.94
2022-11-09T08:37:54.812Z,98577.59
2022-11-09T08:40:24.173Z,98560.22
2022-11-09T08:42:51.967Z,98535.38
2022-11-09T08:45:19.789Z,98574.22
2022-11-09T08:47:47.376Z,98542.97
2022-11-09T08:50:15.807Z,98549.34
2022-11-09T08:52:42.608Z,98548.53
2022-11-09T08:55:09.625Z,98615.50
2022-11-09T08:57:36.416Z,98585.22
2022-11-09T09:00:04.474Z,98621.59
2022-11-09T09:02:31.687Z,98580.59
2022-11-09T09:04:58.669Z,98627.66
2022-11-09T09:07:25.694Z,98570.47
2022-11-09T09:09:52.503Z,98587.72
2022-11-09T09:12:19.468Z,98608.00
2022-11-09T09:14:46.731Z,98640.91
2022-11-09T09:17:13.481Z,98639.34
2022-11-09T09:19:40.371Z,98632.56
2022-11-09T09:22:07.127Z,98638.84
2022-11-09T09:24:34.045Z,98620.53
2022-11-09T09:27:01.686Z,98632.44
2022-11-09T09:29:28.443Z,98674.69
2022-11-09T09:31:55.242Z,98652.63
2022-11-09T09:34:21.999Z,98628.28
2022-11-09T09:36:48.750Z,98672.63
2022-11-09T09:39:16.187Z,98641.75
2022-11-09T09:42:05.069Z,98676.25
2022-11-09T09:44:47.652Z,98679.53
2022-11-09T09:47:27.877Z,98689.78
2022-11-09T09:50:00.488Z,98700.84
2022-11-09T09:52:36.356Z,98698.16
2022-11-09T09:55:07.363Z,98706.50
2022-11-09T09:57:40.645Z,98696.63
2022-11-09T10:00:16.978Z,98710.94
2022-11-09T10:02:43.768Z,98702.22
2022-11-09T10:05:15.659Z,98693.88
2022-11-09T10:07:52.085Z,98697.91
2022-11-09T10:10:56.082Z,98717.41
2022-11-09T10:13:35.050Z,98723.16
2022-11-09T10:16:19.905Z,98692.97
2022-11-09T10:19:29.825Z,98728.41
2022-11-09T10:22:29.368Z,98733.63
2022-11-09T10:25:37.984Z,98735.25
2022-11-09T10:28:14.564Z,98735.91
2022-11-09T10:30:42.391Z,98737.47
2022-11-09T10:33:09.804Z,98718.97
2022-11-09T10:36:17.435Z,98755.75
2022-11-09T10:38:50.234Z,98731.44
2022-11-09T10:41:31.086Z,98754.63
2022-11-09T10:43:59.759Z,98748.88
2022-11-09T10:46:28.894Z,98756.16
2022-11-09T10:48:57.665Z,98732.88
2022-11-09T10:51:48.879Z,98726.91
2022-11-09T10:54:21.742Z,98788.41
2022-11-09T10:57:05.375Z,98792.84
2022-11-09T11:02:26.988Z,98804.53
2022-11-09T11:05:00.124Z,98811.25
2022-11-09T11:07:27.075Z,98796.06
2022-11-09T11:09:58.757Z,98796.66
2022-11-09T11:12:25.606Z,98792.38
2022-11-09T11:14:57.269Z,98790.66
2022-11-09T11:17:27.595Z,98806.41
2022-11-09T11:19:54.761Z,98778.63
2022-11-09T11:22:24.634Z,98813.22
2022-11-09T11:24:55.618Z,98812.19
2022-11-09T11:27:47.953Z,98775.19
2022-11-09T11:30:18.497Z,98820.22
2022-11-09T11:32:50.457Z,98765.13
2022-11-09T11:35:20.688Z,98815.78
2022-11-09T11:37:47.341Z,98817.91
2022-11-09T11:40:32.616Z,98757.50
2022-11-09T11:43:20.008Z,98811.00
2022-11-09T11:46:12.893Z,98801.91
2022-11-09T11:48:55.222Z,98825.78
2022-11-09T11:51:46.191Z,98802.88
2022-11-09T11:54:42.218Z,98831.56
2022-11-09T11:57:15.122Z,98842.16
2022-11-09T12:00:05.244Z,98848.84
2022-11-09T12:03:02.177Z,98814.56
2022-11-09T12:05:47.827Z,98838.81
2022-11-09T12:08:41.676Z,98850.16
2022-11-09T12:11:17.465Z,98843.72
2022-11-09T12:14:06.250Z,98856.03
2022-11-09T12:16:52.745Z,98835.13
2022-11-09T12:19:59.510Z,98864.97
2022-11-09T12:22:55.212Z,98879.78
2022-11-09T12:25:35.376Z,98882.66
2022-11-09T12:28:18.594Z,98879.09
2022-11-09T12:31:09.832Z,98891.41
2022-11-09T12:33:50.864Z,98874.91
2022-11-09T12:36:26.893Z,98851.81
2022-11-09T12:38:54.224Z,98900.78
2022-11-09T12:41:24.712Z,98888.50
2022-11-09T12:44:03.189Z,98889.44
2022-11-09T12:46:39.662Z,98845.72
2022-11-09T12:49:16.709Z,98878.44
2022-11-09T12:51:44.905Z,98920.28
2022-11-09T12:54:12.580Z,98894.34
2022-11-09T12:56:51.687Z,98835.47
2022-11-09T12:59:21.642Z,98927.50
2022-11-09T13:01:58.870Z,98924.78
2022-11-09T13:04:26.299Z,98918.94
2022-11-09T13:07:14.245Z,98936.97
2022-11-09T13:09:45.050Z,98930.03
2022-11-09T13:12:26.925Z,98928.03
2022-11-09T13:14:54.159Z,98937.13
2022-11-09T13:17:23.969Z,98931.72
2022-11-09T13:19:55.416Z,98931.59
2022-11-09T13:22:23.079Z,98934.84
2022-11-09T13:24:56.067Z,98938.44
2022-11-09T13:27:41.158Z,98954.22
2022-11-09T13:30:23.360Z,98958.25
2022-11-09T13:33:17.871Z,98954.84
2022-11-09T13:35:44.673Z,98954.28
2022-11-09T13:38:21.268Z,98943.16
2022-11-09T13:40:49.887Z,98961.16
2022-11-09T13:43:37.509Z,98966.00
2022-11-09T13:46:05.734Z,98970.31
2022-11-09T13:48:32.515Z,98963.44
2022-11-09T13:51:04.454Z,98968.59
2022-11-09T13:53:37.612Z,98971.59
2022-11-09T13:56:27.319Z,98978.09
2022-11-09T13:59:04.440Z,98954.25
2022-11-09T14:01:38.529Z,98958.66
2022-11-09T14:04:05.507Z,98959.84
2022-11-09T14:06:33.390Z,98964.25
2022-11-09T14:09:01.489Z,98966.69
2022-11-09T14:11:50.030Z,98967.63
2022-11-09T14:14:51.537Z,98975.63
2022-11-09T14:17:41.854Z,98982.88
2022-11-09T14:20:40.191Z,98984.44
2022-11-09T14:23:17.174Z,98996.56
2022-11-09T14:25:44.399Z,98995.25
2022-11-09T14:28:31.356Z,99000.63
2022-11-09T14:30:58.096Z,99007.91
2022-11-09T14:33:34.911Z,98989.09
2022-11-09T18:36:04.063Z,99298.94
2022-11-09T18:38:34.150Z,99294.72
2022-11-09T18:41:09.976Z,99280.41
2022-11-09T18:43:38.070Z,99337.94
2022-11-09T18:46:11.062Z,99302.88
2022-11-09T18:48:38.203Z,99307.25
2022-11-09T18:56:29.688Z,99335.00
2022-11-09T19:01:39.446Z,99315.69
2022-11-09T19:04:06.442Z,99296.63
2022-11-09T19:15:00.422Z,99310.78
2022-11-09T19:17:31.978Z,99331.97
2022-11-09T19:20:10.049Z,99358.75
2022-11-09T19:27:58.183Z,99345.00
2022-11-09T19:30:26.040Z,99386.25
2022-11-09T19:32:52.762Z,99375.88
2022-11-09T19:35:25.494Z,99371.53
2022-11-09T19:37:54.073Z,99376.06
2022-11-09T19:40:20.943Z,99352.63
2022-11-09T19:42:47.707Z,99347.06
2022-11-09T19:45:14.446Z,99379.22
2022-11-09T19:47:41.209Z,99391.41
2022-11-09T19:50:08.656Z,99380.69
2022-11-09T19:52:37.481Z,99345.28
2022-11-09T19:55:05.025Z,99403.19
2022-11-09T19:57:31.795Z,99382.53
2022-11-09T19:59:58.597Z,99341.44
2022-11-09T20:02:25.238Z,99352.97
2022-11-09T20:04:52.495Z,99351.56
2022-11-09T20:07:19.411Z,99327.03
2022-11-09T20:09:46.112Z,99341.94
2022-11-09T20:12:31.016Z,99347.84
2022-11-09T20:14:57.835Z,99297.19
2022-11-09T20:17:24.490Z,99315.66
2022-11-09T20:19:51.170Z,99333.25
2022-11-09T20:22:17.897Z,99327.84
2022-11-09T20:24:44.566Z,99327.53
2022-11-09T20:27:11.952Z,99329.25
2022-11-09T20:29:38.637Z,99350.84
2022-11-09T20:32:05.785Z,99379.81
2022-11-09T20:34:32.460Z,99359.53
2022-11-09T20:36:59.135Z,99347.56
2022-11-09T20:39:25.957Z,99364.03
2022-11-09T20:41:52.692Z,99355.69
2022-11-09T20:44:19.440Z,99329.31
2022-11-09T20:46:46.164Z,99294.34
2022-11-09T20:49:12.962Z,99315.50
2022-11-09T20:51:39.743Z,99337.94
2022-11-09T20:54:07.794Z,99334.47
2022-11-09T20:56:36.039Z,99326.53
2022-11-09T20:59:02.801Z,99307.16
2022-11-09T21:01:31.014Z,99324.00
2022-11-09T21:03:57.975Z,99336.53
2022-11-09T21:06:25.064Z,99315.97
2022-11-09T21:08:53.776Z,99344.19
2022-11-09T21:11:24.241Z,99352.03
2022-11-09T21:13:52.171Z,99347.47
2022-11-09T21:16:20.393Z,99344.50
2022-11-09T21:18:47.599Z,99320.72
2022-11-09T21:21:20.248Z,99349.63
2022-11-09T21:24:05.430Z,99334.09
2022-11-09T21:26:50.875Z,99346.91
2022-11-09T21:29:39.017Z,99335.88
2022-11-09T21:32:06.832Z,99346.72
2022-11-09T21:34:37.192Z,99356.34
2022-11-09T21:37:05.353Z,99350.00
2022-11-09T21:39:32.846Z,99359.25
2022-11-09T21:41:59.744Z,99352.34
2022-11-09T21:44:29.608Z,99341.47
2022-11-09T21:46:57.194Z,99353.16
2022-11-09T21:49:24.953Z,99345.03
2022-11-09T21:51:51.926Z,99345.69
2022-11-09T21:54:18.887Z,99357.38
2022-11-09T21:56:47.787Z,99331.75
2022-11-09T21:59:14.830Z,99323.75
2022-11-09T22:01:41.949Z,99309.78
2022-11-09T22:04:09.420Z,99300.25
2022-11-09T22:06:40.896Z,99295.66
2022-11-09T22:09:12.615Z,99271.91
2022-11-09T22:12:06.141Z,99298.66
2022-11-09T22:14:51.046Z,99300.03
2022-11-09T22:17:17.728Z,99286.03
2022-11-09T22:20:02.816Z,99303.88
2022-11-09T22:22:31.838Z,99293.75
2022-11-09T22:24:58.693Z,99295.03
2022-11-09T22:27:25.830Z,99284.78
2022-11-09T22:29:52.830Z,99284.59
2022-11-09T22:32:19.576Z,99273.78
2022-11-09T22:34:46.248Z,99282.84
2022-11-09T22:37:13.011Z,99270.94
2022-11-09T22:39:44.354Z,99270.31
2022-11-09T22:42:13.563Z,99292.00
2022-11-09T22:44:40.234Z,99277.50
2022-11-09T22:47:06.927Z,99284.53
2022-11-09T22:49:36.660Z,99269.31
2022-11-09T22:52:04.381Z,99272.44
2022-11-09T22:54:31.323Z,99279.28
2022-11-09T22:56:57.978Z,99268.72
2022-11-09T22:59:24.594Z,99248.63
2022-11-09T23:01:51.303Z,99277.63
2022-11-09T23:04:18.037Z,99252.38
2022-11-09T23:06:44.908Z,99281.91
2022-11-09T23:09:11.528Z,99286.22
2022-11-09T23:11:38.205Z,99270.72
2022-11-09T23:14:04.824Z,99280.97
2022-11-09T23:16:31.959Z,99276.69
2022-11-09T23:18:58.720Z,99284.25
2022-11-09T23:21:34.581Z,99282.47
2022-11-09T23:24:30.245Z,99292.28
2022-11-09T23:26:57.050Z,99257.78
2022-11-09T23:29:23.663Z,99288.66
2022-11-09T23:31:50.694Z,99269.31
2022-11-09T23:34:17.296Z,99266.59
2022-11-09T23:36:43.912Z,99267.00
2022-11-09T23:39:10.613Z,99264.34
2022-11-09T23:41:37.327Z,99266.59
2022-11-09T23:44:04.018Z,99275.84
2022-11-09T23:46:31.057Z,99249.50
2022-11-09T23:48:57.671Z,99242.38
2022-11-09T23:51:24.367Z,99216.13
2022-11-09T23:53:51.018Z,99236.97
2022-11-09T23:56:17.658Z,99254.34
2022-11-09T23:58:46.829Z,99235.84
